createdAt,value
2019-05-20T00:01:41.411Z,100.00
2019-05-20T00:04:09.716Z,100.00
2019-05-20T00:06:37.997Z,100.00
2019-05-20T00:09:06.473Z,100.00
2019-05-20T00:11:34.972Z,100.00
2019-05-20T00:14:03.256Z,100.00
2019-05-20T00:16:31.541Z,100.00
2019-05-20T00:18:59.870Z,100.00
2019-05-20T00:21:28.180Z,100.00
2019-05-20T00:23:56.465Z,100.00
2019-05-20T00:26:25.793Z,100.00
2019-05-20T00:28:54.088Z,100.00
2019-05-20T00:31:22.450Z,100.00
2019-05-20T00:33:50.749Z,100.00
2019-05-20T00:36:19.056Z,100.00
2019-05-20T00:38:49.017Z,100.00
2019-05-20T00:41:17.333Z,100.00
2019-05-20T00:43:45.630Z,100.00
2019-05-20T00:46:13.913Z,100.00
2019-05-20T00:48:42.209Z,100.00
2019-05-20T00:51:10.504Z,100.00
2019-05-20T00:53:39.649Z,100.00
2019-05-20T00:56:07.946Z,100.00
2019-05-20T00:58:36.294Z,100.00
2019-05-20T01:01:04.853Z,100.00
2019-05-20T01:03:33.132Z,100.00
2019-05-20T01:06:01.419Z,100.00
2019-05-20T01:08:29.724Z,100.00
2019-05-20T01:10:58.013Z,100.00
2019-05-20T01:13:26.341Z,100.00
2019-05-20T01:15:54.648Z,100.00
2019-05-20T01:18:22.917Z,100.00
2019-05-20T01:20:52.979Z,100.00
2019-05-20T01:23:21.253Z,100.00
2019-05-20T01:25:49.557Z,100.00
2019-05-20T01:28:17.865Z,100.00
2019-05-20T01:30:46.152Z,100.00
2019-05-20T01:33:14.650Z,100.00
2019-05-20T01:35:42.922Z,100.00
2019-05-20T01:38:11.212Z,100.00
2019-05-20T01:40:39.504Z,100.00
2019-05-20T01:43:07.790Z,100.00
2019-05-20T01:45:36.080Z,100.00
2019-05-20T01:48:04.402Z,100.00
2019-05-20T01:50:32.735Z,100.00
2019-05-20T01:53:01.041Z,100.00
2019-05-20T01:55:29.350Z,100.00
2019-05-20T01:57:57.668Z,100.00
2019-05-20T02:00:26.023Z,100.00
2019-05-20T02:02:54.315Z,100.00
2019-05-20T02:05:22.609Z,100.00
2019-05-20T02:07:50.901Z,100.00
2019-05-20T02:10:19.347Z,100.00
2019-05-20T02:12:47.653Z,100.00
2019-05-20T02:15:29.380Z,100.00
2019-05-20T02:17:57.695Z,100.00
2019-05-20T02:20:25.977Z,100.00
2019-05-20T02:22:55.899Z,100.00
2019-05-20T02:25:24.186Z,100.00
2019-05-20T02:27:52.527Z,100.00
2019-05-20T02:30:20.810Z,100.00
2019-05-20T02:32:49.088Z,100.00
2019-05-20T02:35:17.381Z,100.00
2019-05-20T02:37:45.664Z,100.00
2019-05-20T02:40:14.227Z,100.00
2019-05-20T02:42:42.518Z,100.00
2019-05-20T02:45:10.882Z,100.00
2019-05-20T02:47:39.185Z,100.00
2019-05-20T02:50:07.731Z,100.00
2019-05-20T02:52:36.018Z,100.00
2019-05-20T02:55:06.138Z,100.00
2019-05-20T02:57:34.424Z,100.00
2019-05-20T03:00:03.145Z,100.00
2019-05-20T03:02:31.475Z,100.00
2019-05-20T03:04:59.739Z,100.00
2019-05-20T03:07:28.105Z,100.00
2019-05-20T03:09:56.419Z,100.00
2019-05-20T03:12:24.703Z,100.00
2019-05-20T03:14:52.999Z,100.00
2019-05-20T03:17:21.293Z,100.00
2019-05-20T03:19:49.586Z,100.00
2019-05-20T03:22:17.892Z,100.00
2019-05-20T03:24:46.197Z,100.00
2019-05-20T03:27:14.480Z,100.00
2019-05-20T03:29:42.772Z,100.00
2019-05-20T03:32:11.229Z,100.00
2019-05-20T03:34:47.725Z,100.00
2019-05-20T03:37:09.548Z,100.00
2019-05-20T03:39:37.856Z,100.00
2019-05-20T03:42:06.134Z,100.00
2019-05-20T03:44:34.450Z,100.00
2019-05-20T03:47:02.764Z,100.00
2019-05-20T03:49:31.064Z,100.00
2019-05-20T03:51:59.360Z,100.00
2019-05-20T03:54:27.654Z,100.00
2019-05-20T03:56:55.963Z,100.00
2019-05-20T03:59:24.256Z,100.00
2019-05-20T04:02:25.685Z,100.00
2019-05-20T04:05:02.517Z,100.00
2019-05-20T04:07:23.995Z,100.00
2019-05-20T04:09:52.316Z,100.00
2019-05-20T04:12:20.629Z,100.00
2019-05-20T04:14:48.925Z,100.00
2019-05-20T04:17:17.218Z,100.00
2019-05-20T04:19:45.534Z,100.00
2019-05-20T04:22:17.026Z,100.00
2019-05-20T04:24:45.316Z,100.00
2019-05-20T04:27:13.592Z,100.00
2019-05-20T04:29:41.886Z,100.00
2019-05-20T04:32:10.748Z,100.00
2019-05-20T04:34:39.051Z,100.00
2019-05-20T04:37:07.320Z,100.00
2019-05-20T04:39:35.621Z,100.00
2019-05-20T04:42:07.239Z,100.00
2019-05-20T04:44:35.646Z,100.00
2019-05-20T04:47:03.910Z,100.00
2019-05-20T04:49:32.217Z,100.00
2019-05-20T04:52:00.524Z,100.00
2019-05-20T04:54:28.810Z,100.00
2019-05-20T04:56:57.098Z,100.00
2019-05-20T04:59:25.394Z,100.00
2019-05-20T05:01:53.695Z,100.00
2019-05-20T05:04:21.985Z,100.00
2019-05-20T05:06:50.259Z,100.00
2019-05-20T05:09:18.635Z,100.00
2019-05-20T05:11:46.885Z,100.00
2019-05-20T05:14:16.999Z,100.00
2019-05-20T05:16:46.947Z,100.00
2019-05-20T05:19:15.910Z,100.00
2019-05-20T05:21:44.248Z,100.00
2019-05-20T05:24:12.622Z,100.00
2019-05-20T05:26:42.038Z,100.00
2019-05-20T05:29:11.605Z,100.00
2019-05-20T05:31:39.939Z,100.00
2019-05-20T05:34:08.988Z,100.00
2019-05-20T05:36:37.298Z,100.00
2019-05-20T05:39:06.831Z,100.00
2019-05-20T05:41:35.169Z,100.00
2019-05-20T05:44:03.509Z,100.00
2019-05-20T05:46:31.863Z,100.00
2019-05-20T05:49:00.290Z,100.00
2019-05-20T05:51:28.635Z,100.00
2019-05-20T05:53:56.918Z,100.00
2019-05-20T05:56:25.567Z,100.00
2019-05-20T05:58:54.417Z,100.00
2019-05-20T06:01:22.789Z,100.00
2019-05-20T06:03:52.706Z,100.00
2019-05-20T06:06:21.090Z,100.00
2019-05-20T06:08:49.424Z,100.00
2019-05-20T06:11:17.794Z,100.00
2019-05-20T06:13:46.919Z,100.00
2019-05-20T06:16:15.625Z,100.00
2019-05-20T06:18:43.941Z,100.00
2019-05-20T06:21:12.266Z,100.00
2019-05-20T06:23:42.978Z,100.00
2019-05-20T06:26:11.391Z,100.00
2019-05-20T06:28:39.826Z,100.00
2019-05-20T06:31:08.425Z,100.00
2019-05-20T06:33:36.836Z,100.00
2019-05-20T06:36:05.215Z,100.00
2019-05-20T06:38:35.219Z,100.00
2019-05-20T06:41:04.966Z,100.00
2019-05-20T06:43:33.373Z,100.00
2019-05-20T06:46:02.103Z,100.00
2019-05-20T06:48:30.439Z,100.00
2019-05-20T06:50:58.777Z,100.00
2019-05-20T06:53:28.216Z,100.00
2019-05-20T06:55:56.455Z,100.00
2019-05-20T06:58:24.831Z,100.00
2019-05-20T07:00:53.172Z,100.00
2019-05-20T07:03:21.568Z,100.00
2019-05-20T07:05:49.864Z,100.00
2019-05-20T07:08:18.239Z,100.00
2019-05-20T07:10:48.849Z,100.00
2019-05-20T07:13:17.196Z,100.00
2019-05-20T07:15:45.579Z,100.00
2019-05-20T07:18:13.925Z,100.00
2019-05-20T07:20:42.339Z,100.00
2019-05-20T07:23:11.519Z,100.00
2019-05-20T07:25:39.889Z,100.00
2019-05-20T07:28:08.203Z,100.00
2019-05-20T07:30:37.895Z,100.00
2019-05-20T07:33:06.200Z,100.00
2019-05-20T07:35:34.694Z,100.00
2019-05-20T07:38:03.053Z,100.00
2019-05-20T07:40:32.375Z,100.00
2019-05-20T07:43:02.146Z,100.00
2019-05-20T07:45:34.324Z,100.00
2019-05-20T07:48:03.235Z,100.00
2019-05-20T07:50:31.750Z,100.00
2019-05-20T07:53:00.705Z,100.00
2019-05-20T07:55:30.885Z,100.00
2019-05-20T07:58:04.605Z,100.00
2019-05-20T08:00:32.966Z,100.00
2019-05-20T08:03:01.283Z,100.00
2019-05-20T08:05:31.198Z,100.00
2019-05-20T08:07:59.724Z,100.00
2019-05-20T08:10:28.073Z,100.00
2019-05-20T08:12:56.466Z,100.00
2019-05-20T08:15:24.779Z,100.00
2019-05-20T08:17:53.858Z,100.00
2019-05-20T08:20:22.628Z,100.00
2019-05-20T08:22:50.993Z,100.00
2019-05-20T08:25:20.208Z,100.00
2019-05-20T08:27:50.998Z,100.00
2019-05-20T08:30:23.753Z,100.00
2019-05-20T08:32:52.104Z,100.00
2019-05-20T08:35:23.664Z,100.00
2019-05-20T08:37:50.991Z,100.00
2019-05-20T08:40:19.337Z,100.00
2019-05-20T08:42:47.641Z,100.00
2019-05-20T08:45:16.087Z,100.00
2019-05-20T08:47:44.415Z,100.00
2019-05-20T08:50:16.231Z,100.00
2019-05-20T08:52:43.184Z,100.00
2019-05-20T08:55:13.777Z,100.00
2019-05-20T08:57:43.775Z,100.00
2019-05-20T09:00:23.577Z,100.00
2019-05-20T09:02:51.372Z,100.00
2019-05-20T09:05:19.685Z,100.00
2019-05-20T09:08:01.436Z,100.00
2019-05-20T09:10:21.778Z,100.00
2019-05-20T09:12:51.403Z,100.00
2019-05-20T09:15:20.716Z,100.00
2019-05-20T09:17:49.113Z,100.00
2019-05-20T09:20:20.205Z,100.00
2019-05-20T09:22:48.564Z,100.00
2019-05-20T09:25:18.694Z,100.00
2019-05-20T09:27:47.737Z,100.00
2019-05-20T09:30:16.192Z,100.00
2019-05-20T09:32:44.555Z,100.00
2019-05-20T09:35:13.398Z,100.00
2019-05-20T09:37:41.743Z,100.00
2019-05-20T09:40:10.756Z,100.00
2019-05-20T09:42:41.041Z,100.00
2019-05-20T09:45:09.710Z,100.00
2019-05-20T09:47:38.418Z,100.00
2019-05-20T09:50:08.671Z,100.00
2019-05-20T09:52:37.877Z,100.00
2019-05-20T09:55:09.001Z,100.00
2019-05-20T09:57:38.102Z,100.00
2019-05-20T10:00:13.793Z,100.00
2019-05-20T10:02:43.132Z,100.00
2019-05-20T10:05:11.648Z,100.00
2019-05-20T10:07:39.991Z,100.00
2019-05-20T10:10:08.787Z,100.00
2019-05-20T10:12:46.188Z,100.00
2019-05-20T10:15:09.215Z,100.00
2019-05-20T10:17:37.495Z,100.00
2019-05-20T10:20:08.018Z,100.00
2019-05-20T10:22:38.924Z,100.00
2019-05-20T10:25:11.145Z,100.00
2019-05-20T10:27:41.779Z,100.00
2019-05-20T10:30:15.118Z,100.00
2019-05-20T10:32:43.541Z,100.00
2019-05-20T10:35:15.448Z,100.00
2019-05-20T10:37:43.852Z,100.00
2019-05-20T10:40:12.386Z,100.00
2019-05-20T10:42:43.185Z,100.00
2019-05-20T10:45:11.782Z,100.00
2019-05-20T10:47:41.379Z,100.00
2019-05-20T10:50:09.892Z,100.00
2019-05-20T10:52:38.191Z,100.00
2019-05-20T10:55:07.992Z,100.00
2019-05-20T10:57:37.379Z,100.00
2019-05-20T11:00:07.285Z,100.00
2019-05-20T11:02:35.577Z,100.00
2019-05-20T11:05:07.177Z,100.00
2019-05-20T11:07:39.627Z,100.00
2019-05-20T11:10:11.593Z,100.00
2019-05-20T11:12:39.873Z,100.00
2019-05-20T11:15:09.139Z,100.00
2019-05-20T11:17:38.617Z,100.00
2019-05-20T11:20:10.442Z,100.00
2019-05-20T11:22:38.713Z,100.00
2019-05-20T11:25:09.608Z,100.00
2019-05-20T11:27:37.881Z,100.00
2019-05-20T11:30:09.980Z,100.00
2019-05-20T11:32:39.581Z,100.00
2019-05-20T11:35:09.402Z,100.00
2019-05-20T11:37:37.690Z,100.00
2019-05-20T11:40:09.635Z,100.00
2019-05-20T11:42:40.051Z,100.00
2019-05-20T11:45:09.355Z,100.00
2019-05-20T11:47:37.638Z,100.00
2019-05-20T11:50:09.281Z,100.00
2019-05-20T11:52:41.203Z,100.00
2019-05-20T11:55:13.114Z,100.00
2019-05-20T11:57:41.385Z,100.00
2019-05-20T12:00:14.656Z,100.00
2019-05-20T12:02:44.338Z,100.00
2019-05-20T12:05:14.647Z,100.00
2019-05-20T12:07:45.972Z,100.00
2019-05-20T12:10:15.780Z,100.00
2019-05-20T12:12:46.276Z,100.00
2019-05-20T12:15:15.409Z,100.00
2019-05-20T12:17:44.364Z,100.00
2019-05-20T12:20:12.963Z,100.00
2019-05-20T12:22:52.809Z,100.00
2019-05-20T12:25:21.087Z,100.00
2019-05-20T12:27:49.425Z,100.00
2019-05-20T12:30:17.707Z,100.00
2019-05-20T12:32:46.228Z,100.00
2019-05-20T12:35:14.708Z,100.00
2019-05-20T12:37:45.690Z,100.00
2019-05-20T12:40:13.286Z,100.00
2019-05-20T12:42:44.324Z,100.00
2019-05-20T12:45:15.417Z,100.00
2019-05-20T12:47:43.716Z,100.00
2019-05-20T12:50:14.778Z,100.00
2019-05-20T12:52:46.176Z,100.00
2019-05-20T12:55:14.546Z,100.00
2019-05-20T12:57:45.303Z,100.00
2019-05-20T13:00:17.122Z,100.00
2019-05-20T13:02:45.541Z,100.00
2019-05-20T13:05:14.603Z,100.00
2019-05-20T13:07:43.541Z,100.00
2019-05-20T13:10:29.240Z,100.00
2019-05-20T13:12:44.264Z,100.00
2019-05-20T13:15:14.336Z,100.00
2019-05-20T13:17:45.416Z,100.00
2019-05-20T13:20:19.103Z,100.00
2019-05-20T13:22:47.314Z,100.00
2019-05-20T13:25:15.673Z,100.00
2019-05-20T13:27:45.620Z,100.00
2019-05-20T13:30:14.284Z,100.00
2019-05-20T13:32:42.786Z,100.00
2019-05-20T13:35:11.383Z,100.00
2019-05-20T13:37:40.926Z,100.00
2019-05-20T13:40:12.131Z,100.00
2019-05-20T13:42:40.451Z,100.00
2019-05-20T13:45:11.335Z,100.00
2019-05-20T13:47:39.623Z,100.00
2019-05-20T13:50:08.985Z,100.00
2019-05-20T13:52:39.186Z,100.00
2019-05-20T13:55:10.005Z,100.00
2019-05-20T13:57:40.629Z,100.00
2019-05-20T14:00:09.577Z,99.17
2019-05-20T14:02:38.044Z,99.45
2019-05-20T14:05:06.561Z,99.52
2019-05-20T14:07:38.219Z,100.00
2019-05-20T14:10:08.304Z,100.00
2019-05-20T14:12:36.583Z,99.39
2019-05-20T14:15:06.275Z,99.42
2019-05-20T14:17:37.211Z,99.62
2019-05-20T14:20:06.743Z,100.00
2019-05-20T14:22:36.648Z,99.56
2019-05-20T14:25:06.620Z,96.89
2019-05-20T14:27:34.890Z,96.65
2019-05-20T14:30:05.183Z,97.06
2019-05-20T14:32:33.541Z,96.60
2019-05-20T14:35:14.131Z,99.77
2019-05-20T14:37:42.424Z,98.68
2019-05-20T14:40:10.859Z,99.98
2019-05-20T14:42:39.617Z,100.00
2019-05-20T14:45:08.076Z,99.33
2019-05-20T14:47:38.845Z,100.00
2019-05-20T14:50:07.962Z,99.67
2019-05-20T14:52:40.010Z,99.70
2019-05-20T14:55:08.571Z,100.00
2019-05-20T14:57:36.936Z,99.93
2019-05-20T15:00:12.984Z,100.00
2019-05-20T15:02:41.278Z,100.00
2019-05-20T15:05:15.062Z,100.00
2019-05-20T15:07:43.796Z,100.00
2019-05-20T15:10:15.531Z,100.00
2019-05-20T15:12:44.643Z,100.00
2019-05-20T15:15:14.900Z,100.00
2019-05-20T15:17:47.459Z,100.00
2019-05-20T15:20:16.906Z,100.00
2019-05-20T15:22:46.134Z,100.00
2019-05-20T15:25:15.825Z,100.00
2019-05-20T15:27:45.955Z,100.00
2019-05-20T15:30:14.613Z,100.00
2019-05-20T15:32:42.957Z,100.00
2019-05-20T15:35:12.767Z,100.00
2019-05-20T15:37:41.073Z,100.00
2019-05-20T15:40:11.112Z,100.00
2019-05-20T15:42:39.435Z,100.00
2019-05-20T15:45:11.910Z,100.00
2019-05-20T15:47:42.144Z,100.00
2019-05-20T15:50:12.357Z,100.00
2019-05-20T15:52:40.668Z,100.00
2019-05-20T15:55:09.294Z,100.00
2019-05-20T15:57:38.126Z,100.00
2019-05-20T16:00:08.360Z,100.00
2019-05-20T16:02:39.933Z,100.00
2019-05-20T16:05:08.512Z,100.00
2019-05-20T16:07:36.879Z,100.00
2019-05-20T16:10:09.339Z,100.00
2019-05-20T16:12:39.269Z,100.00
2019-05-20T16:15:10.298Z,100.00
2019-05-20T16:17:47.995Z,100.00
2019-05-20T16:20:15.928Z,100.00
2019-05-20T16:22:44.395Z,100.00
2019-05-20T16:25:17.495Z,100.00
2019-05-20T16:27:45.813Z,100.00
2019-05-20T16:30:14.748Z,100.00
2019-05-20T16:32:43.619Z,100.00
2019-05-20T16:35:11.935Z,100.00
2019-05-20T16:37:42.706Z,100.00
2019-05-20T16:40:11.508Z,100.00
2019-05-20T16:42:43.269Z,100.00
2019-05-20T16:45:12.434Z,100.00
2019-05-20T16:47:40.934Z,100.00
2019-05-20T16:50:10.402Z,100.00
2019-05-20T16:52:38.763Z,100.00
2019-05-20T16:55:08.043Z,100.00
2019-05-20T16:57:37.931Z,100.00
2019-05-20T17:00:27.401Z,100.00
2019-05-20T17:02:37.877Z,100.00
2019-05-20T17:05:06.726Z,100.00
2019-05-20T17:07:35.011Z,100.00
2019-05-20T17:10:05.168Z,100.00
2019-05-20T17:12:33.471Z,100.00
2019-05-20T17:15:02.264Z,100.00
2019-05-20T17:17:30.554Z,100.00
2019-05-20T17:20:01.779Z,100.00
2019-05-20T17:22:31.043Z,100.00
2019-05-20T17:25:02.004Z,100.00
2019-05-20T17:27:31.604Z,100.00
2019-05-20T17:30:03.575Z,100.00
2019-05-20T17:32:32.333Z,100.00
2019-05-20T17:35:00.731Z,100.00
2019-05-20T17:37:29.130Z,100.00
2019-05-20T17:39:57.434Z,100.00
2019-05-20T17:42:25.811Z,99.83
2019-05-20T17:44:54.582Z,99.12
2019-05-20T17:47:22.866Z,98.90
2019-05-20T17:49:51.149Z,100.00
2019-05-20T17:52:20.376Z,100.00
2019-05-20T17:54:48.733Z,100.00
2019-05-20T17:57:18.699Z,98.60
2019-05-20T17:59:46.991Z,99.19
2019-05-20T18:02:15.316Z,100.00
2019-05-20T18:04:43.910Z,100.00
2019-05-20T18:07:12.229Z,100.00
2019-05-20T18:09:42.167Z,100.00
2019-05-20T18:12:10.530Z,100.00
2019-05-20T18:14:38.989Z,100.00
2019-05-20T18:17:07.291Z,100.00
2019-05-20T18:19:37.276Z,100.00
2019-05-20T18:22:05.580Z,100.00
2019-05-20T18:24:33.956Z,100.00
2019-05-20T18:27:02.283Z,100.00
2019-05-20T18:29:34.035Z,100.00
2019-05-20T18:32:02.398Z,100.00
2019-05-20T18:34:30.721Z,100.00
2019-05-20T18:36:59.003Z,100.00
2019-05-20T18:39:27.274Z,99.98
2019-05-20T18:41:56.295Z,100.00
2019-05-20T18:44:25.656Z,100.00
2019-05-20T18:46:53.998Z,100.00
2019-05-20T18:49:22.334Z,100.00
2019-05-20T18:51:50.655Z,100.00
2019-05-20T18:54:23.328Z,100.00
2019-05-20T18:56:53.686Z,100.00
2019-05-20T18:59:21.998Z,100.00
2019-05-20T19:02:04.682Z,100.00
2019-05-20T19:04:21.038Z,100.00
2019-05-20T19:06:49.421Z,100.00
2019-05-20T19:09:18.166Z,100.00
2019-05-20T19:11:48.123Z,100.00
2019-05-20T19:14:16.419Z,100.00
2019-05-20T19:16:44.804Z,100.00
2019-05-20T19:19:13.202Z,100.00
2019-05-20T19:21:41.507Z,100.00
2019-05-20T19:24:09.862Z,100.00
2019-05-20T19:26:38.208Z,100.00
2019-05-20T19:29:06.552Z,100.00
2019-05-20T19:31:36.028Z,100.00
2019-05-20T19:34:05.396Z,100.00
2019-05-20T19:36:33.757Z,100.00
2019-05-20T19:39:02.820Z,100.00
2019-05-20T19:41:31.128Z,100.00
2019-05-20T19:43:59.459Z,100.00
2019-05-20T19:46:27.819Z,100.00
2019-05-20T19:48:56.143Z,100.00
2019-05-20T19:51:25.724Z,100.00
2019-05-20T19:53:56.618Z,100.00
2019-05-20T19:56:24.909Z,100.00
2019-05-20T19:58:53.244Z,100.00
2019-05-20T20:01:21.706Z,100.00
2019-05-20T20:03:52.983Z,100.00
2019-05-20T20:06:25.901Z,100.00
2019-05-20T20:08:54.233Z,100.00
2019-05-20T20:11:22.508Z,100.00
2019-05-20T20:13:50.797Z,100.00
2019-05-20T20:16:19.097Z,100.00
2019-05-20T20:18:47.387Z,100.00
2019-05-20T20:21:16.412Z,100.00
2019-05-20T20:23:44.707Z,100.00
2019-05-20T20:26:13.007Z,100.00
2019-05-20T20:28:41.318Z,100.00
2019-05-20T20:31:11.066Z,100.00
2019-05-20T20:33:39.866Z,100.00
2019-05-20T20:36:08.162Z,100.00
2019-05-20T20:38:36.448Z,100.00
2019-05-20T20:41:04.748Z,100.00
2019-05-20T20:43:33.037Z,100.00
2019-05-20T20:46:01.428Z,100.00
2019-05-20T20:48:29.698Z,100.00
2019-05-20T20:50:57.982Z,100.00
2019-05-20T20:53:26.276Z,100.00
2019-05-20T20:55:54.552Z,100.00
2019-05-20T20:58:22.850Z,100.00
2019-05-20T21:00:51.158Z,100.00
2019-05-20T21:03:19.454Z,100.00
2019-05-20T21:05:47.761Z,100.00
2019-05-20T21:08:16.058Z,100.00
2019-05-20T21:10:44.338Z,100.00
2019-05-20T21:13:12.628Z,100.00
2019-05-20T21:15:40.901Z,100.00
2019-05-20T21:18:09.205Z,100.00
2019-05-20T21:20:37.499Z,100.00
2019-05-20T21:23:05.805Z,100.00
2019-05-20T21:25:34.080Z,100.00
2019-05-20T21:28:02.378Z,100.00
2019-05-20T21:30:30.657Z,100.00
2019-05-20T21:33:08.720Z,100.00
2019-05-20T21:35:28.969Z,100.00
2019-05-20T21:37:57.250Z,100.00
2019-05-20T21:40:25.537Z,100.00
2019-05-20T21:42:53.817Z,100.00
2019-05-20T21:45:22.138Z,100.00
2019-05-20T21:47:50.400Z,100.00
2019-05-20T21:50:18.709Z,100.00
2019-05-20T21:52:46.992Z,100.00
2019-05-20T21:55:15.278Z,100.00
2019-05-20T21:57:43.552Z,100.00
2019-05-20T22:00:13.553Z,100.00
2019-05-20T22:02:41.830Z,100.00
2019-05-20T22:05:10.461Z,100.00
2019-05-20T22:07:38.799Z,100.00
2019-05-20T22:10:07.484Z,100.00
2019-05-20T22:12:35.783Z,100.00
2019-05-20T22:15:06.191Z,100.00
2019-05-20T22:17:34.478Z,100.00
2019-05-20T22:20:02.833Z,100.00
2019-05-20T22:22:32.753Z,100.00
2019-05-20T22:25:01.145Z,100.00
2019-05-20T22:27:29.381Z,100.00
2019-05-20T22:29:57.675Z,100.00
2019-05-20T22:32:25.982Z,100.00
2019-05-20T22:34:54.252Z,100.00
2019-05-20T22:37:22.572Z,100.00
2019-05-20T22:39:50.849Z,100.00
2019-05-20T22:42:19.152Z,100.00
2019-05-20T22:44:47.428Z,100.00
2019-05-20T22:47:15.732Z,100.00
2019-05-20T22:49:44.035Z,100.00
2019-05-20T22:52:12.312Z,100.00
2019-05-20T22:54:40.619Z,100.00
2019-05-20T22:57:08.938Z,100.00
2019-05-20T22:59:37.203Z,100.00
2019-05-20T23:02:05.497Z,100.00
2019-05-20T23:04:33.776Z,100.00
2019-05-20T23:07:02.068Z,100.00
2019-05-20T23:09:30.335Z,100.00
2019-05-20T23:12:01.346Z,100.00
2019-05-20T23:14:29.635Z,100.00
2019-05-20T23:16:57.937Z,100.00
2019-05-20T23:19:26.211Z,100.00
2019-05-20T23:21:54.510Z,100.00
2019-05-20T23:24:22.816Z,100.00
2019-05-20T23:26:51.161Z,100.00
2019-05-20T23:29:19.469Z,100.00
2019-05-20T23:31:47.748Z,100.00
2019-05-20T23:34:16.116Z,100.00
2019-05-20T23:36:44.407Z,100.00
2019-05-20T23:39:12.724Z,100.00
2019-05-20T23:41:40.997Z,100.00
2019-05-20T23:44:09.284Z,100.00
2019-05-20T23:46:37.655Z,100.00
2019-05-20T23:49:05.928Z,100.00
2019-05-20T23:51:34.225Z,100.00
2019-05-20T23:54:02.487Z,100.00
2019-05-20T23:56:30.799Z,100.00
2019-05-20T23:58:59.072Z,100.00
